createdAt,value
2019-01-25T07:41:35.691Z,404.00
2019-01-25T07:42:35.921Z,452.00
2019-01-25T07:43:35.732Z,460.00
2019-01-25T07:44:35.612Z,408.00
2019-01-25T07:45:35.614Z,416.00
2019-01-25T07:46:35.565Z,464.00
2019-01-25T07:47:35.550Z,476.00
2019-01-25T07:48:35.704Z,460.00
2019-01-25T07:49:35.567Z,452.00
2019-01-25T07:50:35.521Z,508.00
2019-01-25T07:51:35.493Z,508.00
2019-01-25T07:52:35.569Z,440.00
2019-01-25T07:53:35.487Z,296.00
2019-01-25T07:54:35.505Z,276.00
2019-01-25T07:55:35.466Z,292.00
2019-01-25T07:56:35.494Z,304.00
2019-01-25T07:57:35.499Z,360.00
2019-01-25T07:58:35.424Z,428.00
2019-01-25T07:59:35.420Z,484.00
2019-01-25T08:00:35.389Z,492.00
2019-01-25T08:01:35.515Z,480.00
2019-01-25T08:02:35.405Z,492.00
2019-01-25T08:03:35.369Z,616.00
2019-01-25T08:04:35.381Z,684.00
2019-01-25T08:05:35.328Z,676.00
2019-01-25T08:06:35.445Z,644.00
2019-01-25T08:07:36.342Z,600.00
2019-01-25T08:08:35.301Z,684.00
2019-01-25T08:09:35.332Z,780.00
2019-01-25T08:10:35.359Z,708.00
2019-01-25T08:11:35.270Z,716.00
2019-01-25T08:12:35.340Z,728.00
2019-01-25T08:13:35.237Z,780.00
2019-01-25T08:14:35.300Z,700.00
2019-01-25T08:15:35.253Z,748.00
2019-01-25T08:16:35.204Z,808.00
2019-01-25T08:17:35.211Z,920.00
2019-01-25T08:18:35.237Z,988.00
2019-01-25T08:19:35.212Z,1056.00
2019-01-25T08:20:35.160Z,1148.00
2019-01-25T08:21:36.122Z,1192.00
2019-01-25T08:22:35.205Z,1204.00
2019-01-25T08:23:35.188Z,1256.00
2019-01-25T08:24:35.184Z,1272.00
2019-01-25T08:25:35.127Z,1144.00
2019-01-25T08:26:35.138Z,1036.00
2019-01-25T08:27:35.134Z,1048.00
2019-01-25T08:28:35.070Z,1160.00
2019-01-25T08:29:35.117Z,1520.00
2019-01-25T08:30:35.088Z,1760.00
2019-01-25T08:31:35.074Z,1688.00
2019-01-25T08:32:35.081Z,1524.00
2019-01-25T08:33:36.094Z,1500.00
2019-01-25T08:34:35.067Z,1924.00
2019-01-25T08:35:35.068Z,2196.00
2019-01-25T08:36:34.996Z,2136.00
2019-01-25T08:37:35.841Z,2172.00
2019-01-25T08:40:13.137Z,2212.00
2019-01-25T08:41:15.549Z,2332.00
2019-01-25T08:42:15.603Z,2068.00
2019-01-25T08:43:12.527Z,1932.00
2019-01-25T08:44:12.567Z,2004.00
2019-01-25T08:45:12.523Z,2100.00
2019-01-25T08:47:28.467Z,1904.00
2019-01-25T08:48:29.241Z,1604.00
2019-01-25T08:49:28.305Z,1604.00
2019-01-25T08:50:28.194Z,1836.00
2019-01-25T08:51:28.149Z,1852.00
2019-01-25T08:52:28.129Z,2064.00
2019-01-25T08:53:28.190Z,2136.00
2019-01-25T08:54:28.177Z,2112.00
2019-01-25T08:55:28.104Z,2256.00
2019-01-25T08:56:28.089Z,2796.00
2019-01-25T08:57:28.126Z,3100.00
2019-01-25T08:58:28.147Z,3552.00
2019-01-25T08:59:28.059Z,3684.00
2019-01-25T09:00:28.076Z,3808.00
2019-01-25T09:01:28.029Z,4080.00
2019-01-25T09:02:28.012Z,3760.00
2019-01-25T09:03:43.470Z,3828.00
2019-01-25T09:04:50.479Z,3792.00
2019-01-25T09:05:28.894Z,3952.00
2019-01-25T09:06:27.978Z,4224.00
2019-01-25T09:07:27.965Z,4528.00
2019-01-25T09:08:27.946Z,4496.00
2019-01-25T09:09:34.873Z,4452.00
2019-01-25T09:10:27.954Z,4004.00
2019-01-25T09:11:27.945Z,4192.00
2019-01-25T09:12:27.903Z,4672.00
2019-01-25T09:13:27.894Z,5044.00
2019-01-25T09:14:27.882Z,4836.00
2019-01-25T09:15:27.899Z,4488.00
2019-01-25T09:16:27.863Z,4432.00
2019-01-25T09:17:27.888Z,4656.00
2019-01-25T09:18:27.861Z,4808.00
2019-01-25T09:19:27.827Z,4800.00
2019-01-25T09:20:27.859Z,4356.00
2019-01-25T09:21:27.823Z,4080.00
2019-01-25T09:22:27.795Z,3784.00
2019-01-25T09:23:27.796Z,3584.00
2019-01-25T09:24:27.772Z,3552.00
2019-01-25T09:25:27.786Z,3484.00
2019-01-25T09:26:27.748Z,3872.00
2019-01-25T09:27:28.648Z,3892.00
2019-01-25T09:28:36.098Z,3588.00
2019-01-25T09:29:35.549Z,3588.00
2019-01-25T09:30:29.568Z,3596.00
2019-01-25T09:31:28.262Z,3600.00
2019-01-25T09:32:28.292Z,3608.00
2019-01-25T09:33:27.676Z,3348.00
2019-01-25T09:34:28.372Z,3560.00
2019-01-25T09:35:27.683Z,3380.00
2019-01-25T09:36:27.691Z,2804.00
2019-01-25T09:37:27.628Z,2708.00
2019-01-25T09:38:27.763Z,2588.00
2019-01-25T09:39:27.610Z,2576.00
2019-01-25T09:40:27.636Z,2860.00
2019-01-25T09:41:27.597Z,3480.00
2019-01-25T09:42:31.252Z,3784.00
2019-01-25T09:43:27.567Z,3976.00
2019-01-25T09:44:27.552Z,4584.00
2019-01-25T09:45:27.622Z,4580.00
2019-01-25T09:46:27.530Z,3744.00
2019-01-25T09:47:27.518Z,3368.00
2019-01-25T09:48:27.507Z,3316.00
2019-01-25T09:49:27.499Z,3660.00
2019-01-25T09:50:27.510Z,3700.00
2019-01-25T09:51:27.540Z,4232.00
2019-01-25T09:52:27.465Z,4532.00
2019-01-25T09:53:27.465Z,4988.00
2019-01-25T09:54:27.450Z,5232.00
2019-01-25T09:55:27.478Z,5256.00
2019-01-25T09:56:27.435Z,5004.00
2019-01-25T09:57:27.497Z,5116.00
2019-01-25T09:58:27.413Z,5108.00
2019-01-25T09:59:27.436Z,4596.00
2019-01-25T10:00:27.403Z,3936.00
2019-01-25T10:01:27.370Z,4180.00
2019-01-25T10:02:27.421Z,4292.00
2019-01-25T10:03:27.342Z,3792.00
2019-01-25T10:04:27.366Z,3308.00
2019-01-25T10:05:27.354Z,3160.00
2019-01-25T10:06:27.373Z,3148.00
2019-01-25T10:07:27.365Z,3652.00
2019-01-25T10:08:27.322Z,4020.00
2019-01-25T10:09:27.275Z,4628.00
2019-01-25T10:10:27.421Z,5212.00
2019-01-25T10:11:27.259Z,4328.00
2019-01-25T10:12:27.283Z,4208.00
2019-01-25T10:13:27.231Z,4396.00
2019-01-25T10:14:27.221Z,4560.00
2019-01-25T10:15:27.250Z,4952.00
2019-01-25T10:16:27.206Z,5164.00
2019-01-25T10:17:27.187Z,5908.00
2019-01-25T10:18:27.177Z,4940.00
2019-01-25T10:19:27.166Z,5900.00
2019-01-25T10:20:27.181Z,4828.00
2019-01-25T10:21:27.191Z,5204.00
2019-01-25T10:22:27.135Z,6344.00
2019-01-25T10:23:27.120Z,6716.00
2019-01-25T10:24:27.111Z,6624.00
2019-01-25T10:25:27.282Z,6244.00
2019-01-25T10:26:27.116Z,5848.00
2019-01-25T10:27:27.089Z,6040.00
2019-01-25T10:28:27.087Z,6536.00
2019-01-25T10:29:27.904Z,6092.00
2019-01-25T10:30:27.071Z,4324.00
2019-01-25T10:31:27.041Z,3436.00
2019-01-25T10:32:27.057Z,3456.00
2019-01-25T10:33:27.022Z,3724.00
2019-01-25T10:34:27.002Z,3648.00
2019-01-25T10:35:27.123Z,3904.00
2019-01-25T10:36:26.980Z,3884.00
2019-01-25T10:37:26.974Z,3704.00
2019-01-25T10:38:27.858Z,3764.00
2019-01-25T10:39:30.157Z,3780.00
2019-01-25T10:40:26.963Z,3800.00
2019-01-25T10:41:28.956Z,3588.00
2019-01-25T10:42:26.998Z,3572.00
2019-01-25T10:43:26.935Z,3628.00
2019-01-25T10:44:26.893Z,3620.00
2019-01-25T10:45:26.911Z,3528.00
2019-01-25T10:46:26.895Z,3444.00
2019-01-25T10:47:26.859Z,3360.00
2019-01-25T10:48:54.409Z,3388.00
2019-01-25T10:49:26.946Z,3348.00
2019-01-25T10:50:27.306Z,3308.00
2019-01-25T10:51:27.143Z,3308.00
2019-01-25T10:52:26.884Z,3304.00
2019-01-25T10:53:26.795Z,3256.00
2019-01-25T10:54:26.782Z,3164.00
2019-01-25T10:55:26.807Z,3188.00
2019-01-25T10:56:26.866Z,3160.00
2019-01-25T10:57:26.766Z,3204.00
2019-01-25T10:58:33.512Z,3256.00
2019-01-25T10:59:47.815Z,3324.00
2019-01-25T11:31:37.618Z,4156.00
